createdAt,value
2018-08-04T00:00:35.817Z,79.20
2018-08-04T00:03:05.169Z,77.60
2018-08-04T00:05:34.555Z,76.40
2018-08-04T00:08:03.904Z,76.00
2018-08-04T00:10:33.280Z,75.50
2018-08-04T00:13:02.576Z,79.60
2018-08-04T00:15:31.806Z,79.70
2018-08-04T00:18:01.065Z,79.30
2018-08-04T00:20:30.422Z,79.80
2018-08-04T00:22:59.685Z,81.30
2018-08-04T00:25:29.050Z,81.60
2018-08-04T00:27:58.112Z,82.90
2018-08-04T00:30:27.257Z,83.00
2018-08-04T00:32:56.423Z,80.30
2018-08-04T00:35:25.588Z,80.50
2018-08-04T00:37:54.648Z,81.50
2018-08-04T00:40:23.874Z,82.70
2018-08-04T00:42:53.175Z,82.40
2018-08-04T00:45:22.547Z,82.50
2018-08-04T00:47:51.920Z,82.80
2018-08-04T00:50:21.374Z,83.40
2018-08-04T00:52:50.858Z,84.10
2018-08-04T00:55:20.320Z,84.90
2018-08-04T00:57:49.645Z,84.50
2018-08-04T01:00:18.915Z,84.30
2018-08-04T01:02:48.232Z,83.80
2018-08-04T01:05:17.636Z,85.60
2018-08-04T01:07:46.921Z,85.90
2018-08-04T01:10:16.704Z,83.30
2018-08-04T01:12:45.940Z,83.50
2018-08-04T01:15:15.507Z,83.00
2018-08-04T01:17:44.783Z,83.40
2018-08-04T01:20:14.096Z,83.70
2018-08-04T01:22:43.516Z,81.60
2018-08-04T01:25:12.680Z,80.70
2018-08-04T01:27:41.965Z,83.00
2018-08-04T01:30:11.132Z,84.20
2018-08-04T01:32:40.483Z,85.80
2018-08-04T01:35:09.649Z,83.10
2018-08-04T01:37:38.908Z,84.00
2018-08-04T01:40:09.104Z,84.50
2018-08-04T01:42:38.468Z,86.50
2018-08-04T01:45:07.720Z,87.00
2018-08-04T01:47:36.872Z,83.70
2018-08-04T01:50:06.444Z,83.90
2018-08-04T01:52:35.692Z,83.60
2018-08-04T01:55:04.863Z,86.20
2018-08-04T01:57:34.008Z,86.90
2018-08-04T02:00:03.328Z,84.70
2018-08-04T02:02:32.746Z,82.10
2018-08-04T02:05:02.014Z,86.00
2018-08-04T02:07:31.316Z,86.20
2018-08-04T02:10:00.644Z,85.50
2018-08-04T02:12:29.960Z,83.40
2018-08-04T02:14:59.408Z,85.20
2018-08-04T02:17:28.580Z,85.20
2018-08-04T02:19:58.040Z,84.90
2018-08-04T02:22:27.458Z,83.70
2018-08-04T02:24:56.603Z,83.50
2018-08-04T02:27:25.736Z,83.70
2018-08-04T02:29:55.280Z,85.60
2018-08-04T02:32:24.356Z,85.60
2018-08-04T02:34:53.596Z,83.80
2018-08-04T02:37:22.752Z,82.90
2018-08-04T02:42:20.781Z,83.50
2018-08-04T02:44:50.140Z,83.60
2018-08-04T02:47:19.420Z,82.60
2018-08-04T02:49:48.768Z,81.80
2018-08-04T02:52:18.460Z,85.90
2018-08-04T02:54:47.899Z,83.90
2018-08-04T02:57:17.389Z,84.10
2018-08-04T02:59:46.910Z,89.30
2018-08-04T03:02:16.308Z,86.30
2018-08-04T03:04:45.532Z,89.30
2018-08-04T03:07:15.037Z,88.00
2018-08-04T03:09:44.484Z,88.00
2018-08-04T03:12:13.924Z,86.50
2018-08-04T03:14:43.072Z,86.40
2018-08-04T03:17:12.420Z,85.60
2018-08-04T03:19:41.696Z,86.70
2018-08-04T03:22:11.361Z,87.40
2018-08-04T03:24:40.523Z,87.50
2018-08-04T03:27:09.784Z,87.20
2018-08-04T03:29:38.981Z,86.50
2018-08-04T03:32:08.603Z,88.30
2018-08-04T03:34:38.236Z,87.80
2018-08-04T03:37:07.646Z,90.00
2018-08-04T03:39:36.816Z,88.60
2018-08-04T03:42:05.957Z,87.20
2018-08-04T03:44:35.236Z,84.80
2018-08-04T03:47:04.589Z,87.40
2018-08-04T03:49:33.652Z,87.40
2018-08-04T03:52:02.704Z,88.20
2018-08-04T03:54:31.864Z,89.10
2018-08-04T03:57:00.994Z,87.00
2018-08-04T03:59:30.084Z,88.50
2018-08-04T04:01:59.336Z,87.60
2018-08-04T04:04:28.616Z,85.60
2018-08-04T04:06:57.961Z,88.40
2018-08-04T04:09:27.024Z,86.70
2018-08-04T04:11:56.083Z,85.30
2018-08-04T04:14:25.254Z,84.30
2018-08-04T04:16:54.493Z,85.40
2018-08-04T04:19:23.763Z,86.40
2018-08-04T04:21:52.904Z,88.60
2018-08-04T04:24:22.208Z,88.30
2018-08-04T04:26:51.748Z,86.50
2018-08-04T04:29:21.137Z,85.10
2018-08-04T04:31:50.489Z,85.60
2018-08-04T04:34:19.749Z,85.20
2018-08-04T04:36:49.208Z,84.40
2018-08-04T04:39:18.432Z,84.50
2018-08-04T04:41:47.836Z,83.70
2018-08-04T04:44:17.208Z,83.80
2018-08-04T04:46:46.560Z,85.40
2018-08-04T04:49:16.000Z,84.30
2018-08-04T04:51:45.140Z,83.60
2018-08-04T04:54:14.590Z,83.30
2018-08-04T04:56:43.752Z,84.60
2018-08-04T04:59:12.909Z,85.80
2018-08-04T05:01:42.384Z,86.50
2018-08-04T05:04:11.440Z,84.60
2018-08-04T05:06:40.604Z,84.30
2018-08-04T05:09:10.792Z,85.40
2018-08-04T05:11:40.050Z,85.80
2018-08-04T05:14:09.197Z,87.30
2018-08-04T05:16:38.383Z,86.30
2018-08-04T05:19:07.722Z,85.80
2018-08-04T05:21:36.902Z,87.50
2018-08-04T05:24:06.132Z,88.60
2018-08-04T05:26:35.329Z,88.10
2018-08-04T05:29:04.569Z,86.90
2018-08-04T05:31:33.744Z,85.80
2018-08-04T05:34:03.093Z,88.20
2018-08-04T05:36:32.356Z,90.20
2018-08-04T05:39:01.716Z,90.10
2018-08-04T05:41:31.120Z,89.10
2018-08-04T05:44:00.400Z,89.90
2018-08-04T05:46:29.628Z,90.00
2018-08-04T05:48:58.928Z,88.60
2018-08-04T05:51:28.269Z,87.90
2018-08-04T05:53:57.443Z,87.90
2018-08-04T05:56:26.783Z,88.80
2018-08-04T05:58:56.069Z,89.30
2018-08-04T06:01:25.420Z,90.10
2018-08-04T06:03:54.697Z,89.00
2018-08-04T06:06:24.156Z,89.20
2018-08-04T06:08:53.544Z,89.30
2018-08-04T06:11:22.885Z,90.00
2018-08-04T06:13:52.184Z,88.20
2018-08-04T06:16:21.377Z,87.70
2018-08-04T06:18:50.928Z,87.40
2018-08-04T06:21:20.430Z,86.70
2018-08-04T06:23:49.850Z,87.60
2018-08-04T06:26:19.375Z,84.90
2018-08-04T06:28:48.862Z,87.60
2018-08-04T06:31:18.219Z,87.10
2018-08-04T06:33:47.580Z,86.70
2018-08-04T06:36:16.725Z,85.20
2018-08-04T06:38:45.928Z,86.70
2018-08-04T06:41:15.092Z,83.40
2018-08-04T06:43:44.232Z,81.90
2018-08-04T06:46:13.512Z,81.40
2018-08-04T06:48:42.973Z,81.20
2018-08-04T06:51:12.244Z,78.20
2018-08-04T06:53:41.607Z,75.30
2018-08-04T06:56:10.916Z,76.80
2018-08-04T06:58:40.219Z,75.40
2018-08-04T07:01:09.704Z,75.90
2018-08-04T07:03:39.065Z,78.20
2018-08-04T07:06:08.437Z,79.10
2018-08-04T07:08:37.683Z,78.90
2018-08-04T07:11:06.744Z,77.00
2018-08-04T07:13:36.088Z,76.80
2018-08-04T07:16:05.383Z,78.00
2018-08-04T07:18:34.512Z,80.10
2018-08-04T07:21:03.977Z,81.00
2018-08-04T07:23:33.236Z,80.60
2018-08-04T07:26:02.602Z,82.70
2018-08-04T07:28:31.846Z,76.90
2018-08-04T07:31:01.158Z,67.70
2018-08-04T07:33:30.588Z,63.50
2018-08-04T07:35:59.904Z,61.40
2018-08-04T07:38:29.217Z,65.30
2018-08-04T07:40:58.567Z,62.40
2018-08-04T07:43:27.748Z,62.70
2018-08-04T07:45:56.908Z,61.80
2018-08-04T07:48:26.388Z,66.00
2018-08-04T07:50:55.693Z,66.10
2018-08-04T07:53:25.000Z,65.00
2018-08-04T07:55:54.119Z,64.40
2018-08-04T07:58:23.280Z,61.20
2018-08-04T08:00:52.737Z,60.40
2018-08-04T08:03:22.004Z,58.50
2018-08-04T08:05:51.360Z,58.40
2018-08-04T08:08:20.432Z,59.50
2018-08-04T08:10:50.064Z,57.60
2018-08-04T08:15:48.309Z,53.30
2018-08-04T08:18:17.690Z,54.80
2018-08-04T08:20:47.036Z,54.60
2018-08-04T08:23:16.369Z,55.00
2018-08-04T08:25:56.795Z,56.90
2018-08-04T08:28:26.093Z,54.20
2018-08-04T08:30:55.549Z,57.20
2018-08-04T08:33:24.706Z,53.00
2018-08-04T08:35:54.042Z,52.90
2018-08-04T08:38:23.305Z,52.60
2018-08-04T08:40:52.696Z,52.40
2018-08-04T08:43:21.972Z,51.50
2018-08-04T08:45:51.347Z,54.10
2018-08-04T08:50:49.333Z,53.40
2018-08-04T08:53:18.722Z,53.30
2018-08-04T08:55:48.256Z,51.70
2018-08-04T08:58:17.567Z,48.90
2018-08-04T09:00:48.587Z,52.40
2018-08-04T09:03:18.909Z,49.90
2018-08-04T09:05:48.037Z,51.30
2018-08-04T09:08:17.601Z,49.20
2018-08-04T09:10:46.755Z,50.40
2018-08-04T09:13:16.421Z,48.30
2018-08-04T09:15:45.981Z,49.60
2018-08-04T09:18:14.946Z,49.90
2018-08-04T09:20:43.842Z,49.80
2018-08-04T09:23:12.812Z,50.80
2018-08-04T09:25:43.534Z,51.20
2018-08-04T09:28:13.185Z,50.30
2018-08-04T09:30:42.396Z,48.60
2018-08-04T09:33:11.856Z,48.50
2018-08-04T09:35:41.324Z,49.30
2018-08-04T09:38:10.680Z,46.70
2018-08-04T09:40:39.987Z,46.10
2018-08-04T09:43:09.396Z,46.90
2018-08-04T09:45:38.771Z,47.50
2018-08-04T09:48:08.160Z,45.80
2018-08-04T09:50:37.480Z,46.80
2018-08-04T09:53:06.736Z,45.90
2018-08-04T09:55:35.853Z,45.80
2018-08-04T09:58:05.092Z,48.80
2018-08-04T10:00:39.613Z,48.00
2018-08-04T10:03:08.846Z,46.90
2018-08-04T10:05:38.318Z,46.50
2018-08-04T10:08:07.744Z,46.70
2018-08-04T10:10:37.002Z,47.30
2018-08-04T10:13:06.577Z,49.00
2018-08-04T10:15:35.715Z,48.00
2018-08-04T10:18:05.101Z,48.10
2018-08-04T10:20:34.341Z,46.20
2018-08-04T10:23:03.509Z,47.50
2018-08-04T10:25:32.836Z,47.00
2018-08-04T10:28:02.172Z,47.10
2018-08-04T10:30:31.598Z,47.40
2018-08-04T10:33:00.760Z,48.60
2018-08-04T10:35:30.104Z,49.10
2018-08-04T10:37:59.317Z,48.50
2018-08-04T10:40:28.846Z,48.30
2018-08-04T10:42:58.116Z,47.20
2018-08-04T10:45:27.456Z,48.00
2018-08-04T10:47:56.951Z,47.30
2018-08-04T10:50:26.312Z,48.10
2018-08-04T10:52:55.581Z,47.60
2018-08-04T10:55:25.233Z,47.80
2018-08-04T10:57:54.610Z,47.90
2018-08-04T11:00:24.057Z,46.60
2018-08-04T11:02:53.244Z,46.50
2018-08-04T11:05:22.504Z,46.10
2018-08-04T11:07:51.752Z,46.50
2018-08-04T11:10:20.884Z,45.50
2018-08-04T11:12:50.158Z,45.00
2018-08-04T11:15:19.345Z,45.50
2018-08-04T11:17:48.519Z,44.90
2018-08-04T11:20:17.895Z,44.90
2018-08-04T11:22:47.236Z,44.10
2018-08-04T11:25:16.532Z,45.70
2018-08-04T11:27:46.284Z,44.00
2018-08-04T11:30:15.593Z,49.00
2018-08-04T11:32:45.013Z,49.30
2018-08-04T11:35:14.188Z,49.20
2018-08-04T11:37:43.453Z,50.00
2018-08-04T11:42:41.851Z,49.70
2018-08-04T11:45:11.116Z,48.70
2018-08-04T11:47:40.256Z,49.10
2018-08-04T11:50:09.555Z,50.00
2018-08-04T11:52:38.994Z,49.20
2018-08-04T11:55:08.278Z,51.30
2018-08-04T11:57:37.598Z,49.90
2018-08-04T12:00:07.025Z,52.10
2018-08-04T12:02:36.353Z,51.00
2018-08-04T12:05:05.628Z,53.20
2018-08-04T12:07:34.948Z,53.30
2018-08-04T12:10:04.460Z,51.70
2018-08-04T12:12:33.816Z,52.70
2018-08-04T12:15:02.885Z,53.90
2018-08-04T12:17:32.229Z,52.90
2018-08-04T12:22:30.191Z,52.30
2018-08-04T12:24:59.344Z,51.80
2018-08-04T12:27:28.633Z,52.80
2018-08-04T12:29:58.024Z,53.90
2018-08-04T12:32:27.343Z,53.00
2018-08-04T12:34:56.596Z,53.00
2018-08-04T12:37:25.802Z,51.20
2018-08-04T12:39:55.324Z,51.40
2018-08-04T12:42:24.532Z,53.70
2018-08-04T12:44:54.020Z,51.80
2018-08-04T12:47:23.461Z,52.90
2018-08-04T12:49:52.764Z,53.70
2018-08-04T12:52:21.940Z,52.20
2018-08-04T12:54:51.191Z,50.60
2018-08-04T12:57:20.708Z,52.70
2018-08-04T12:59:50.021Z,52.50
2018-08-04T13:02:19.234Z,51.60
2018-08-04T13:04:48.588Z,54.10
2018-08-04T13:07:17.699Z,52.90
2018-08-04T13:09:46.962Z,52.50
2018-08-04T13:12:16.133Z,53.50
2018-08-04T13:14:45.482Z,51.80
2018-08-04T13:17:14.795Z,51.40
2018-08-04T13:19:44.136Z,52.00
2018-08-04T13:22:13.496Z,54.20
2018-08-04T13:24:43.042Z,53.40
2018-08-04T13:27:12.210Z,53.40
2018-08-04T13:29:41.724Z,53.70
2018-08-04T13:32:10.940Z,53.70
2018-08-04T13:34:40.160Z,50.90
2018-08-04T13:37:09.556Z,52.70
2018-08-04T13:39:38.670Z,52.60
2018-08-04T13:42:08.100Z,52.80
2018-08-04T13:44:37.401Z,52.70
2018-08-04T13:47:06.744Z,53.50
2018-08-04T13:49:35.834Z,55.00
2018-08-04T13:52:05.077Z,54.50
2018-08-04T13:54:34.247Z,54.70
2018-08-04T13:57:03.796Z,54.50
2018-08-04T13:59:33.070Z,53.10
2018-08-04T14:02:02.329Z,54.60
2018-08-04T14:04:31.509Z,53.80
2018-08-04T14:07:00.737Z,54.50
2018-08-04T14:09:30.017Z,53.70
2018-08-04T14:11:59.398Z,53.40
2018-08-04T14:14:28.677Z,54.30
2018-08-04T14:16:58.104Z,54.40
2018-08-04T14:19:27.249Z,53.30
2018-08-04T14:21:56.621Z,53.70
2018-08-04T14:24:25.841Z,54.30
2018-08-04T14:26:55.049Z,51.80
2018-08-04T14:29:24.348Z,54.20
2018-08-04T14:31:53.668Z,55.10
2018-08-04T14:34:22.832Z,52.60
2018-08-04T14:36:52.089Z,52.70
2018-08-04T14:39:21.414Z,53.80
2018-08-04T14:41:50.560Z,53.10
2018-08-04T14:44:19.722Z,53.20
2018-08-04T14:46:49.085Z,52.70
2018-08-04T14:49:18.448Z,53.60
2018-08-04T14:51:47.712Z,54.30
2018-08-04T14:54:17.076Z,53.70
2018-08-04T14:56:46.245Z,52.00
2018-08-04T14:59:15.232Z,53.10
2018-08-04T15:01:44.352Z,51.60
2018-08-04T15:04:13.948Z,50.90
2018-08-04T15:06:43.328Z,52.40
2018-08-04T15:09:13.244Z,53.60
2018-08-04T15:11:42.424Z,53.70
2018-08-04T15:14:12.027Z,52.80
2018-08-04T15:16:41.264Z,53.30
2018-08-04T15:19:10.925Z,53.30
2018-08-04T15:21:40.260Z,53.70
2018-08-04T15:24:09.428Z,52.60
2018-08-04T15:26:38.508Z,53.60
2018-08-04T15:29:07.958Z,53.50
2018-08-04T15:31:37.236Z,52.10
2018-08-04T15:34:06.681Z,53.40
2018-08-04T15:36:35.959Z,53.90
2018-08-04T15:39:06.904Z,54.00
2018-08-04T15:41:36.216Z,53.90
2018-08-04T15:44:05.589Z,52.90
2018-08-04T15:46:35.088Z,54.30
2018-08-04T15:49:04.600Z,52.90
2018-08-04T15:51:33.914Z,53.20
2018-08-04T15:54:03.295Z,52.80
2018-08-04T15:56:32.620Z,53.90
2018-08-04T15:59:01.868Z,53.20
2018-08-04T16:01:30.928Z,52.20
2018-08-04T16:04:00.175Z,53.20
2018-08-04T16:06:29.488Z,52.10
2018-08-04T16:08:58.679Z,53.20
2018-08-04T16:11:28.137Z,54.00
2018-08-04T16:13:57.391Z,54.40
2018-08-04T16:16:26.863Z,54.60
2018-08-04T16:18:56.124Z,54.80
2018-08-04T16:21:25.572Z,53.10
2018-08-04T16:23:54.753Z,54.30
2018-08-04T16:26:24.225Z,53.60
2018-08-04T16:28:54.373Z,54.40
2018-08-04T16:31:23.740Z,54.20
2018-08-04T16:33:52.905Z,54.20
2018-08-04T16:36:22.183Z,54.50
2018-08-04T16:38:51.536Z,55.30
2018-08-04T16:41:20.899Z,55.50
2018-08-04T16:43:50.416Z,55.60
2018-08-04T16:46:19.624Z,56.60
2018-08-04T16:48:48.784Z,57.20
2018-08-04T16:51:18.035Z,56.40
2018-08-04T16:53:47.354Z,57.20
2018-08-04T16:56:16.552Z,57.10
2018-08-04T16:58:45.939Z,58.70
2018-08-04T17:01:15.276Z,59.60
2018-08-04T17:03:44.553Z,59.40
2018-08-04T17:06:14.010Z,59.90
2018-08-04T17:08:43.277Z,62.70
2018-08-04T17:11:12.596Z,62.60
2018-08-04T17:13:41.840Z,61.80
2018-08-04T17:16:11.228Z,61.70
2018-08-04T17:18:40.580Z,62.90
2018-08-04T17:21:09.756Z,64.00
2018-08-04T17:23:38.996Z,64.00
2018-08-04T17:26:08.192Z,62.90
2018-08-04T17:28:37.396Z,65.20
2018-08-04T17:31:06.796Z,66.10
2018-08-04T17:33:36.149Z,66.00
2018-08-04T17:36:05.433Z,66.50
2018-08-04T17:38:34.872Z,65.70
2018-08-04T17:41:04.161Z,67.60
2018-08-04T17:43:33.502Z,67.80
2018-08-04T17:46:02.814Z,68.10
2018-08-04T17:48:32.212Z,70.40
2018-08-04T17:51:01.399Z,71.00
2018-08-04T17:53:30.753Z,71.20
2018-08-04T17:55:59.929Z,71.40
2018-08-04T17:58:29.372Z,72.60
2018-08-04T18:00:58.639Z,72.90
2018-08-04T18:03:27.803Z,73.60
2018-08-04T18:05:57.000Z,73.70
2018-08-04T18:08:26.320Z,74.10
2018-08-04T18:10:55.704Z,75.00
2018-08-04T18:13:24.832Z,76.60
2018-08-04T18:15:53.999Z,76.30
2018-08-04T18:18:23.009Z,75.80
2018-08-04T18:20:52.260Z,74.70
2018-08-04T18:23:21.540Z,74.90
2018-08-04T18:25:50.783Z,77.20
2018-08-04T18:28:20.058Z,76.80
2018-08-04T18:30:49.229Z,74.40
2018-08-04T18:33:18.392Z,74.50
2018-08-04T18:35:47.832Z,76.40
2018-08-04T18:38:17.204Z,76.50
2018-08-04T18:40:46.656Z,78.30
2018-08-04T18:43:15.980Z,79.10
2018-08-04T18:45:45.489Z,79.70
2018-08-04T18:48:14.773Z,79.00
2018-08-04T18:50:44.009Z,79.40
2018-08-04T18:53:13.176Z,78.20
2018-08-04T18:55:42.652Z,80.50
2018-08-04T18:58:11.825Z,80.30
2018-08-04T19:00:41.264Z,84.10
2018-08-04T19:03:10.546Z,83.30
2018-08-04T19:05:39.776Z,84.70
2018-08-04T19:08:08.952Z,82.60
2018-08-04T19:10:38.092Z,81.20
2018-08-04T19:13:07.277Z,81.60
2018-08-04T19:15:36.556Z,82.80
2018-08-04T19:18:06.005Z,83.50
2018-08-04T19:20:35.240Z,84.40
2018-08-04T19:23:04.641Z,85.70
2018-08-04T19:25:33.963Z,87.60
2018-08-04T19:28:03.171Z,90.30
2018-08-04T19:30:32.472Z,90.20
2018-08-04T19:33:01.729Z,90.50
2018-08-04T19:35:31.137Z,90.50
2018-08-04T19:38:00.552Z,90.20
2018-08-04T19:40:29.856Z,90.90
2018-08-04T19:42:59.068Z,92.30
2018-08-04T19:45:28.369Z,91.70
2018-08-04T19:47:57.791Z,90.80
2018-08-04T19:50:27.087Z,91.40
2018-08-04T19:52:56.631Z,92.80
2018-08-04T19:55:26.011Z,91.60
2018-08-04T19:57:55.473Z,92.70
2018-08-04T20:00:25.184Z,92.10
2018-08-04T20:02:54.460Z,92.60
2018-08-04T20:05:23.790Z,92.30
2018-08-04T20:07:53.196Z,92.00
2018-08-04T20:10:22.392Z,92.00
2018-08-04T20:12:51.738Z,92.10
2018-08-04T20:15:21.116Z,92.50
2018-08-04T20:17:50.374Z,92.40
2018-08-04T20:20:19.549Z,92.30
2018-08-04T20:22:48.897Z,92.10
2018-08-04T20:25:18.156Z,93.70
2018-08-04T20:27:47.404Z,93.00
2018-08-04T20:30:16.480Z,92.60
2018-08-04T20:32:45.749Z,93.10
2018-08-04T20:35:15.000Z,94.00
2018-08-04T20:37:44.363Z,94.20
2018-08-04T20:40:13.524Z,96.10
2018-08-04T20:42:42.668Z,96.20
2018-08-04T20:45:11.935Z,95.00
2018-08-04T20:47:41.244Z,96.60
2018-08-04T20:50:10.378Z,96.00
2018-08-04T20:52:39.680Z,95.00
2018-08-04T20:55:09.227Z,95.10
2018-08-04T20:57:38.548Z,95.90
2018-08-04T21:00:07.757Z,95.60
2018-08-04T21:02:36.896Z,95.20
2018-08-04T21:05:06.388Z,95.20
2018-08-04T21:07:35.644Z,95.20
2018-08-04T21:10:05.309Z,95.00
2018-08-04T21:12:34.446Z,95.50
2018-08-04T21:15:03.937Z,95.10
2018-08-04T21:17:33.325Z,95.50
2018-08-04T21:20:02.776Z,94.70
2018-08-04T21:22:32.040Z,97.20
2018-08-04T21:25:01.438Z,97.10
2018-08-04T21:29:59.522Z,96.90
2018-08-04T21:32:28.823Z,96.60
2018-08-04T21:34:58.049Z,97.60
2018-08-04T21:37:27.224Z,97.40
2018-08-04T21:39:56.575Z,97.60
2018-08-04T21:42:26.043Z,98.20
2018-08-04T21:44:55.412Z,96.60
2018-08-04T21:47:24.681Z,95.80
2018-08-04T21:49:54.163Z,96.60
2018-08-04T21:52:23.442Z,97.00
2018-08-04T21:54:52.620Z,97.70
2018-08-04T21:57:22.045Z,99.20
2018-08-04T21:59:51.220Z,99.70
2018-08-04T22:02:20.776Z,98.40
2018-08-04T22:04:50.153Z,99.90
2018-08-04T22:07:40.377Z,99.30
2018-08-04T22:10:10.341Z,99.60
2018-08-04T22:12:39.736Z,99.90
2018-08-04T22:15:09.776Z,99.90
2018-08-04T22:17:38.973Z,99.90
2018-08-04T22:20:09.944Z,99.90
2018-08-04T22:22:39.589Z,99.90
2018-08-04T22:25:10.516Z,99.90
2018-08-04T22:27:40.012Z,99.30
2018-08-04T22:30:10.981Z,99.90
2018-08-04T22:32:40.576Z,99.90
2018-08-04T22:35:10.000Z,99.90
2018-08-04T22:37:39.769Z,99.90
2018-08-04T22:40:09.982Z,99.90
2018-08-04T22:42:39.677Z,99.90
2018-08-04T22:45:52.184Z,99.90
2018-08-04T22:48:22.140Z,99.90
2018-08-04T22:50:51.440Z,99.90
2018-08-04T22:53:20.645Z,99.90
2018-08-04T22:55:50.039Z,99.90
2018-08-04T22:58:19.289Z,99.90
2018-08-04T23:00:48.600Z,99.90
2018-08-04T23:03:17.896Z,99.90
2018-08-04T23:05:47.148Z,99.90
2018-08-04T23:08:16.420Z,99.90
2018-08-04T23:10:45.629Z,99.90
2018-08-04T23:13:15.408Z,99.90
2018-08-04T23:15:44.772Z,99.90
2018-08-04T23:18:14.187Z,99.90
2018-08-04T23:20:43.569Z,99.90
2018-08-04T23:23:13.689Z,99.90
2018-08-04T23:25:43.460Z,99.90
2018-08-04T23:28:12.971Z,99.90
2018-08-04T23:30:42.248Z,99.90
2018-08-04T23:33:11.608Z,99.90
2018-08-04T23:35:40.874Z,99.90
2018-08-04T23:38:10.219Z,99.90
2018-08-04T23:40:39.392Z,99.90
2018-08-04T23:43:08.642Z,99.90
2018-08-04T23:45:38.012Z,99.90
2018-08-04T23:48:06.964Z,99.90
2018-08-04T23:50:36.132Z,99.90
2018-08-04T23:53:05.282Z,99.90
2018-08-04T23:55:34.339Z,99.90
2018-08-04T23:58:03.592Z,99.90
